sensor_id;sensor_type;location;lat;lon;timestamp;P1;durP1;ratioP1;P2;durP2;ratioP2
77026;SDS011;65956;52.986;17.490;2023-04-10T00:00:43;15.50;;;7.80;;
77026;SDS011;65956;52.986;17.490;2023-04-10T00:03:19;15.60;;;8.00;;
77026;SDS011;65956;52.986;17.490;2023-04-10T00:05:46;17.00;;;8.60;;
77026;SDS011;65956;52.986;17.490;2023-04-10T00:08:12;17.00;;;8.80;;
77026;SDS011;65956;52.986;17.490;2023-04-10T00:10:38;16.30;;;7.80;;
77026;SDS011;65956;52.986;17.490;2023-04-10T00:13:04;16.60;;;7.10;;
77026;SDS011;65956;52.986;17.490;2023-04-10T00:15:30;12.30;;;7.00;;
77026;SDS011;65956;52.986;17.490;2023-04-10T00:17:56;15.70;;;7.60;;
77026;SDS011;65956;52.986;17.490;2023-04-10T00:20:22;14.90;;;8.50;;
77026;SDS011;65956;52.986;17.490;2023-04-10T00:22:50;19.50;;;9.70;;
77026;SDS011;65956;52.986;17.490;2023-04-10T00:25:16;16.10;;;8.50;;
77026;SDS011;65956;52.986;17.490;2023-04-10T00:27:42;18.10;;;9.20;;
77026;SDS011;65956;52.986;17.490;2023-04-10T00:30:08;15.80;;;7.90;;
77026;SDS011;65956;52.986;17.490;2023-04-10T00:32:35;15.10;;;7.30;;
77026;SDS011;65956;52.986;17.490;2023-04-10T00:35:01;16.60;;;8.10;;
77026;SDS011;65956;52.986;17.490;2023-04-10T00:37:27;14.60;;;7.30;;
77026;SDS011;65956;52.986;17.490;2023-04-10T00:39:53;11.60;;;6.50;;
77026;SDS011;65956;52.986;17.490;2023-04-10T00:42:19;12.70;;;6.00;;
77026;SDS011;65956;52.986;17.490;2023-04-10T00:44:45;13.20;;;6.40;;
77026;SDS011;65956;52.986;17.490;2023-04-10T00:47:12;13.40;;;6.30;;
77026;SDS011;65956;52.986;17.490;2023-04-10T00:49:39;15.80;;;6.40;;
77026;SDS011;65956;52.986;17.490;2023-04-10T00:52:06;13.30;;;6.20;;
77026;SDS011;65956;52.986;17.490;2023-04-10T00:54:33;13.10;;;6.30;;
77026;SDS011;65956;52.986;17.490;2023-04-10T00:57:01;40.20;;;12.10;;
77026;SDS011;65956;52.986;17.490;2023-04-10T00:59:29;39.50;;;13.60;;
77026;SDS011;65956;52.986;17.490;2023-04-10T01:01:56;29.80;;;9.40;;
77026;SDS011;65956;52.986;17.490;2023-04-10T01:04:23;15.30;;;6.90;;
77026;SDS011;65956;52.986;17.490;2023-04-10T01:15:31;14.50;;;6.50;;
77026;SDS011;65956;52.986;17.490;2023-04-10T01:20:44;17.80;;;7.60;;
77026;SDS011;65956;52.986;17.490;2023-04-10T01:26:14;18.90;;;8.00;;
77026;SDS011;65956;52.986;17.490;2023-04-10T01:28:50;24.90;;;9.60;;
77026;SDS011;65956;52.986;17.490;2023-04-10T01:31:19;24.60;;;10.40;;
77026;SDS011;65956;52.986;17.490;2023-04-10T01:33:53;23.40;;;10.80;;
77026;SDS011;65956;52.986;17.490;2023-04-10T01:36:30;18.10;;;8.70;;
77026;SDS011;65956;52.986;17.490;2023-04-10T01:39:05;12.10;;;6.40;;
77026;SDS011;65956;52.986;17.490;2023-04-10T01:41:32;10.50;;;5.30;;
77026;SDS011;65956;52.986;17.490;2023-04-10T01:44:01;10.50;;;5.30;;
77026;SDS011;65956;52.986;17.490;2023-04-10T01:46:29;14.10;;;6.10;;
77026;SDS011;65956;52.986;17.490;2023-04-10T01:48:57;15.20;;;7.60;;
77026;SDS011;65956;52.986;17.490;2023-04-10T01:51:26;15.90;;;8.00;;
77026;SDS011;65956;52.986;17.490;2023-04-10T01:53:55;14.10;;;6.40;;
77026;SDS011;65956;52.986;17.490;2023-04-10T01:56:24;15.20;;;7.00;;
77026;SDS011;65956;52.986;17.490;2023-04-10T01:58:51;15.40;;;7.40;;
77026;SDS011;65956;52.986;17.490;2023-04-10T02:01:18;15.60;;;7.60;;
77026;SDS011;65956;52.986;17.490;2023-04-10T02:03:46;16.20;;;8.00;;
77026;SDS011;65956;52.986;17.490;2023-04-10T02:12:03;15.40;;;7.20;;
77026;SDS011;65956;52.986;17.490;2023-04-10T02:14:33;23.00;;;8.90;;
77026;SDS011;65956;52.986;17.490;2023-04-10T02:17:03;22.40;;;9.40;;
77026;SDS011;65956;52.986;17.490;2023-04-10T02:19:31;20.80;;;8.70;;
77026;SDS011;65956;52.986;17.490;2023-04-10T02:21:59;12.70;;;5.60;;
77026;SDS011;65956;52.986;17.490;2023-04-10T02:24:26;12.60;;;5.50;;
77026;SDS011;65956;52.986;17.490;2023-04-10T02:26:52;14.10;;;5.60;;
77026;SDS011;65956;52.986;17.490;2023-04-10T02:29:18;18.40;;;7.10;;
77026;SDS011;65956;52.986;17.490;2023-04-10T02:31:45;19.50;;;8.00;;
77026;SDS011;65956;52.986;17.490;2023-04-10T02:34:12;11.30;;;5.70;;
77026;SDS011;65956;52.986;17.490;2023-04-10T02:36:39;10.30;;;5.50;;
77026;SDS011;65956;52.986;17.490;2023-04-10T02:39:05;13.00;;;5.00;;
77026;SDS011;65956;52.986;17.490;2023-04-10T02:41:33;14.70;;;6.10;;
77026;SDS011;65956;52.986;17.490;2023-04-10T02:44:00;12.00;;;5.20;;
77026;SDS011;65956;52.986;17.490;2023-04-10T02:46:26;9.80;;;5.30;;
77026;SDS011;65956;52.986;17.490;2023-04-10T02:48:53;10.40;;;5.20;;
77026;SDS011;65956;52.986;17.490;2023-04-10T02:51:20;10.40;;;5.60;;
77026;SDS011;65956;52.986;17.490;2023-04-10T02:53:46;13.10;;;6.40;;
77026;SDS011;65956;52.986;17.490;2023-04-10T02:56:21;13.90;;;5.60;;
77026;SDS011;65956;52.986;17.490;2023-04-10T02:58:47;11.00;;;6.70;;
77026;SDS011;65956;52.986;17.490;2023-04-10T03:01:13;11.60;;;5.30;;
77026;SDS011;65956;52.986;17.490;2023-04-10T03:03:44;14.50;;;6.30;;
77026;SDS011;65956;52.986;17.490;2023-04-10T03:06:11;10.00;;;5.10;;
77026;SDS011;65956;52.986;17.490;2023-04-10T03:08:39;12.20;;;6.10;;
77026;SDS011;65956;52.986;17.490;2023-04-10T03:11:06;8.40;;;4.90;;
77026;SDS011;65956;52.986;17.490;2023-04-10T03:13:33;12.00;;;6.00;;
77026;SDS011;65956;52.986;17.490;2023-04-10T03:15:59;12.00;;;4.60;;
77026;SDS011;65956;52.986;17.490;2023-04-10T03:18:25;12.30;;;6.60;;
77026;SDS011;65956;52.986;17.490;2023-04-10T03:20:51;11.60;;;5.50;;
77026;SDS011;65956;52.986;17.490;2023-04-10T03:23:19;14.60;;;7.10;;
77026;SDS011;65956;52.986;17.490;2023-04-10T03:25:48;13.30;;;6.50;;
77026;SDS011;65956;52.986;17.490;2023-04-10T03:28:16;11.90;;;6.00;;
77026;SDS011;65956;52.986;17.490;2023-04-10T03:30:43;12.80;;;6.90;;
77026;SDS011;65956;52.986;17.490;2023-04-10T03:33:09;15.90;;;8.20;;
77026;SDS011;65956;52.986;17.490;2023-04-10T03:35:35;16.80;;;7.50;;
77026;SDS011;65956;52.986;17.490;2023-04-10T03:38:01;13.20;;;5.70;;
77026;SDS011;65956;52.986;17.490;2023-04-10T03:40:27;14.60;;;7.10;;
77026;SDS011;65956;52.986;17.490;2023-04-10T03:42:54;13.70;;;6.00;;
77026;SDS011;65956;52.986;17.490;2023-04-10T03:45:20;15.50;;;6.80;;
77026;SDS011;65956;52.986;17.490;2023-04-10T03:47:46;11.10;;;5.20;;
77026;SDS011;65956;52.986;17.490;2023-04-10T03:50:14;10.70;;;5.60;;
77026;SDS011;65956;52.986;17.490;2023-04-10T03:52:45;12.30;;;5.00;;
77026;SDS011;65956;52.986;17.490;2023-04-10T03:55:15;12.30;;;6.20;;
77026;SDS011;65956;52.986;17.490;2023-04-10T03:57:44;14.20;;;6.00;;
77026;SDS011;65956;52.986;17.490;2023-04-10T04:00:14;13.00;;;5.20;;
77026;SDS011;65956;52.986;17.490;2023-04-10T04:02:47;13.70;;;6.60;;
77026;SDS011;65956;52.986;17.490;2023-04-10T04:05:36;10.50;;;5.90;;
77026;SDS011;65956;52.986;17.490;2023-04-10T04:08:23;11.00;;;5.60;;
77026;SDS011;65956;52.986;17.490;2023-04-10T04:11:08;10.10;;;5.50;;
77026;SDS011;65956;52.986;17.490;2023-04-10T04:13:41;10.70;;;5.40;;
77026;SDS011;65956;52.986;17.490;2023-04-10T04:16:10;17.60;;;7.20;;
77026;SDS011;65956;52.986;17.490;2023-04-10T04:19:02;12.10;;;5.50;;
77026;SDS011;65956;52.986;17.490;2023-04-10T04:21:36;9.00;;;5.10;;
77026;SDS011;65956;52.986;17.490;2023-04-10T04:24:25;13.60;;;6.50;;
77026;SDS011;65956;52.986;17.490;2023-04-10T04:27:12;10.60;;;5.40;;
77026;SDS011;65956;52.986;17.490;2023-04-10T04:29:58;13.30;;;6.00;;
77026;SDS011;65956;52.986;17.490;2023-04-10T04:32:37;11.30;;;5.00;;
77026;SDS011;65956;52.986;17.490;2023-04-10T04:35:21;13.40;;;6.10;;
77026;SDS011;65956;52.986;17.490;2023-04-10T04:38:07;29.90;;;19.70;;
77026;SDS011;65956;52.986;17.490;2023-04-10T04:40:33;26.10;;;17.10;;
77026;SDS011;65956;52.986;17.490;2023-04-10T04:43:22;21.50;;;10.10;;
77026;SDS011;65956;52.986;17.490;2023-04-10T04:45:58;14.60;;;6.80;;
77026;SDS011;65956;52.986;17.490;2023-04-10T04:48:50;11.50;;;6.00;;
77026;SDS011;65956;52.986;17.490;2023-04-10T04:51:43;11.70;;;5.40;;
77026;SDS011;65956;52.986;17.490;2023-04-10T04:54:32;10.70;;;5.00;;
77026;SDS011;65956;52.986;17.490;2023-04-10T04:57:16;11.30;;;5.70;;
77026;SDS011;65956;52.986;17.490;2023-04-10T04:59:56;10.00;;;5.70;;
77026;SDS011;65956;52.986;17.490;2023-04-10T05:02:57;11.10;;;6.40;;
77026;SDS011;65956;52.986;17.490;2023-04-10T05:05:46;16.50;;;7.00;;
77026;SDS011;65956;52.986;17.490;2023-04-10T05:08:45;11.60;;;6.00;;
77026;SDS011;65956;52.986;17.490;2023-04-10T05:11:26;10.60;;;5.80;;
77026;SDS011;65956;52.986;17.490;2023-04-10T05:14:15;9.90;;;5.30;;
77026;SDS011;65956;52.986;17.490;2023-04-10T05:17:04;9.10;;;5.40;;
77026;SDS011;65956;52.986;17.490;2023-04-10T05:19:46;10.50;;;5.30;;
77026;SDS011;65956;52.986;17.490;2023-04-10T05:22:47;16.20;;;6.00;;
77026;SDS011;65956;52.986;17.490;2023-04-10T05:25:52;11.50;;;6.30;;
77026;SDS011;65956;52.986;17.490;2023-04-10T05:28:37;9.80;;;5.80;;
77026;SDS011;65956;52.986;17.490;2023-04-10T05:31:28;11.00;;;5.70;;
77026;SDS011;65956;52.986;17.490;2023-04-10T05:34:16;12.30;;;6.20;;
77026;SDS011;65956;52.986;17.490;2023-04-10T05:37:06;11.50;;;6.30;;
77026;SDS011;65956;52.986;17.490;2023-04-10T05:39:50;11.30;;;5.80;;
77026;SDS011;65956;52.986;17.490;2023-04-10T05:42:28;11.30;;;6.30;;
77026;SDS011;65956;52.986;17.490;2023-04-10T05:45:13;11.90;;;6.10;;
77026;SDS011;65956;52.986;17.490;2023-04-10T05:47:48;12.00;;;6.50;;
77026;SDS011;65956;52.986;17.490;2023-04-10T05:50:25;12.00;;;6.50;;
77026;SDS011;65956;52.986;17.490;2023-04-10T05:53:11;12.90;;;6.10;;
77026;SDS011;65956;52.986;17.490;2023-04-10T05:55:49;11.10;;;6.10;;
77026;SDS011;65956;52.986;17.490;2023-04-10T05:58:37;13.10;;;6.30;;
77026;SDS011;65956;52.986;17.490;2023-04-10T06:01:13;10.50;;;5.80;;
77026;SDS011;65956;52.986;17.490;2023-04-10T06:03:50;14.30;;;6.60;;
77026;SDS011;65956;52.986;17.490;2023-04-10T06:06:16;12.70;;;6.70;;
77026;SDS011;65956;52.986;17.490;2023-04-10T06:08:42;14.60;;;7.80;;
77026;SDS011;65956;52.986;17.490;2023-04-10T06:11:08;14.50;;;7.90;;
77026;SDS011;65956;52.986;17.490;2023-04-10T06:13:34;17.20;;;8.50;;
77026;SDS011;65956;52.986;17.490;2023-04-10T06:16:01;15.50;;;7.90;;
77026;SDS011;65956;52.986;17.490;2023-04-10T06:18:27;12.60;;;7.80;;
77026;SDS011;65956;52.986;17.490;2023-04-10T06:20:53;13.00;;;6.70;;
77026;SDS011;65956;52.986;17.490;2023-04-10T06:23:21;14.50;;;7.60;;
77026;SDS011;65956;52.986;17.490;2023-04-10T06:25:48;13.90;;;6.80;;
77026;SDS011;65956;52.986;17.490;2023-04-10T06:28:14;13.90;;;7.90;;
77026;SDS011;65956;52.986;17.490;2023-04-10T06:30:42;12.80;;;7.60;;
77026;SDS011;65956;52.986;17.490;2023-04-10T06:33:08;13.00;;;6.90;;
77026;SDS011;65956;52.986;17.490;2023-04-10T06:35:35;12.90;;;7.70;;
77026;SDS011;65956;52.986;17.490;2023-04-10T06:38:02;11.30;;;6.60;;
77026;SDS011;65956;52.986;17.490;2023-04-10T06:40:31;14.60;;;7.80;;
77026;SDS011;65956;52.986;17.490;2023-04-10T06:42:59;14.80;;;7.50;;
77026;SDS011;65956;52.986;17.490;2023-04-10T06:45:33;14.70;;;7.80;;
77026;SDS011;65956;52.986;17.490;2023-04-10T06:47:59;17.20;;;9.80;;
77026;SDS011;65956;52.986;17.490;2023-04-10T06:50:25;13.70;;;7.70;;
77026;SDS011;65956;52.986;17.490;2023-04-10T06:52:52;14.40;;;8.10;;
77026;SDS011;65956;52.986;17.490;2023-04-10T06:55:20;15.00;;;8.20;;
77026;SDS011;65956;52.986;17.490;2023-04-10T06:57:46;13.60;;;8.10;;
77026;SDS011;65956;52.986;17.490;2023-04-10T07:00:12;15.30;;;7.20;;
77026;SDS011;65956;52.986;17.490;2023-04-10T07:02:39;16.70;;;8.00;;
77026;SDS011;65956;52.986;17.490;2023-04-10T07:05:05;14.90;;;8.30;;
77026;SDS011;65956;52.986;17.490;2023-04-10T07:07:31;15.30;;;8.70;;
77026;SDS011;65956;52.986;17.490;2023-04-10T07:09:57;17.90;;;8.60;;
77026;SDS011;65956;52.986;17.490;2023-04-10T07:12:23;12.70;;;7.90;;
77026;SDS011;65956;52.986;17.490;2023-04-10T07:14:50;14.60;;;8.00;;
77026;SDS011;65956;52.986;17.490;2023-04-10T07:17:16;13.80;;;8.20;;
77026;SDS011;65956;52.986;17.490;2023-04-10T07:19:42;13.90;;;8.40;;
77026;SDS011;65956;52.986;17.490;2023-04-10T07:22:08;14.70;;;8.40;;
77026;SDS011;65956;52.986;17.490;2023-04-10T07:24:33;15.90;;;8.30;;
77026;SDS011;65956;52.986;17.490;2023-04-10T07:26:59;14.50;;;9.00;;
77026;SDS011;65956;52.986;17.490;2023-04-10T07:29:26;18.50;;;9.80;;
77026;SDS011;65956;52.986;17.490;2023-04-10T07:31:52;15.70;;;8.90;;
77026;SDS011;65956;52.986;17.490;2023-04-10T07:34:18;16.90;;;8.90;;
77026;SDS011;65956;52.986;17.490;2023-04-10T07:36:44;13.70;;;8.50;;
77026;SDS011;65956;52.986;17.490;2023-04-10T07:39:11;16.00;;;9.60;;
77026;SDS011;65956;52.986;17.490;2023-04-10T07:41:37;16.00;;;9.20;;
77026;SDS011;65956;52.986;17.490;2023-04-10T07:44:03;15.90;;;8.60;;
77026;SDS011;65956;52.986;17.490;2023-04-10T07:46:30;16.90;;;9.50;;
77026;SDS011;65956;52.986;17.490;2023-04-10T07:48:56;12.70;;;7.90;;
77026;SDS011;65956;52.986;17.490;2023-04-10T07:51:22;18.30;;;9.40;;
77026;SDS011;65956;52.986;17.490;2023-04-10T07:53:48;15.20;;;8.00;;
77026;SDS011;65956;52.986;17.490;2023-04-10T07:56:17;13.10;;;8.00;;
77026;SDS011;65956;52.986;17.490;2023-04-10T07:58:44;15.10;;;8.40;;
77026;SDS011;65956;52.986;17.490;2023-04-10T08:01:11;15.50;;;8.70;;
77026;SDS011;65956;52.986;17.490;2023-04-10T08:03:38;19.20;;;10.00;;
77026;SDS011;65956;52.986;17.490;2023-04-10T08:06:13;18.40;;;9.90;;
77026;SDS011;65956;52.986;17.490;2023-04-10T08:08:41;15.10;;;8.30;;
77026;SDS011;65956;52.986;17.490;2023-04-10T08:11:26;17.60;;;7.60;;
77026;SDS011;65956;52.986;17.490;2023-04-10T08:13:59;15.10;;;7.90;;
77026;SDS011;65956;52.986;17.490;2023-04-10T08:16:31;14.30;;;7.70;;
77026;SDS011;65956;52.986;17.490;2023-04-10T08:19:00;13.20;;;7.90;;
77026;SDS011;65956;52.986;17.490;2023-04-10T08:21:33;16.40;;;9.00;;
77026;SDS011;65956;52.986;17.490;2023-04-10T08:24:00;13.60;;;7.60;;
77026;SDS011;65956;52.986;17.490;2023-04-10T08:26:27;14.60;;;7.00;;
77026;SDS011;65956;52.986;17.490;2023-04-10T08:28:55;13.90;;;7.40;;
77026;SDS011;65956;52.986;17.490;2023-04-10T08:31:22;14.90;;;7.70;;
77026;SDS011;65956;52.986;17.490;2023-04-10T08:33:50;15.30;;;7.80;;
77026;SDS011;65956;52.986;17.490;2023-04-10T08:36:16;13.70;;;8.00;;
77026;SDS011;65956;52.986;17.490;2023-04-10T08:38:43;15.80;;;8.00;;
77026;SDS011;65956;52.986;17.490;2023-04-10T08:41:10;14.30;;;7.60;;
77026;SDS011;65956;52.986;17.490;2023-04-10T08:43:38;12.80;;;7.70;;
77026;SDS011;65956;52.986;17.490;2023-04-10T08:46:04;14.70;;;7.90;;
77026;SDS011;65956;52.986;17.490;2023-04-10T08:48:47;12.60;;;7.50;;
77026;SDS011;65956;52.986;17.490;2023-04-10T08:51:20;11.10;;;6.50;;
77026;SDS011;65956;52.986;17.490;2023-04-10T08:56:18;12.90;;;7.50;;
77026;SDS011;65956;52.986;17.490;2023-04-10T08:58:45;13.40;;;8.10;;
77026;SDS011;65956;52.986;17.490;2023-04-10T09:01:12;15.30;;;8.20;;
77026;SDS011;65956;52.986;17.490;2023-04-10T09:03:39;12.70;;;7.20;;
77026;SDS011;65956;52.986;17.490;2023-04-10T09:06:06;12.60;;;7.80;;
77026;SDS011;65956;52.986;17.490;2023-04-10T09:08:32;13.10;;;8.10;;
77026;SDS011;65956;52.986;17.490;2023-04-10T09:10:59;12.90;;;7.90;;
77026;SDS011;65956;52.986;17.490;2023-04-10T09:13:38;14.30;;;8.00;;
77026;SDS011;65956;52.986;17.490;2023-04-10T09:16:06;11.50;;;7.50;;
77026;SDS011;65956;52.986;17.490;2023-04-10T09:18:43;12.10;;;7.40;;
77026;SDS011;65956;52.986;17.490;2023-04-10T09:21:09;11.70;;;7.30;;
77026;SDS011;65956;52.986;17.490;2023-04-10T09:23:36;11.50;;;7.10;;
77026;SDS011;65956;52.986;17.490;2023-04-10T09:26:22;13.00;;;6.70;;
77026;SDS011;65956;52.986;17.490;2023-04-10T09:31:35;12.20;;;7.10;;
77026;SDS011;65956;52.986;17.490;2023-04-10T09:36:31;9.80;;;6.20;;
77026;SDS011;65956;52.986;17.490;2023-04-10T09:38:57;12.70;;;7.10;;
77026;SDS011;65956;52.986;17.490;2023-04-10T09:41:23;11.00;;;6.80;;
77026;SDS011;65956;52.986;17.490;2023-04-10T09:43:52;15.40;;;9.50;;
77026;SDS011;65956;52.986;17.490;2023-04-10T09:46:36;11.40;;;7.70;;
77026;SDS011;65956;52.986;17.490;2023-04-10T09:49:03;13.70;;;7.10;;
77026;SDS011;65956;52.986;17.490;2023-04-10T09:51:35;15.70;;;7.70;;
77026;SDS011;65956;52.986;17.490;2023-04-10T09:54:02;9.90;;;7.00;;
77026;SDS011;65956;52.986;17.490;2023-04-10T09:56:29;9.80;;;6.70;;
77026;SDS011;65956;52.986;17.490;2023-04-10T09:58:56;13.40;;;7.60;;
77026;SDS011;65956;52.986;17.490;2023-04-10T10:01:25;10.30;;;7.10;;
77026;SDS011;65956;52.986;17.490;2023-04-10T10:03:53;9.40;;;6.20;;
77026;SDS011;65956;52.986;17.490;2023-04-10T10:06:21;11.70;;;7.50;;
77026;SDS011;65956;52.986;17.490;2023-04-10T10:08:48;10.20;;;7.10;;
77026;SDS011;65956;52.986;17.490;2023-04-10T10:11:20;10.40;;;6.60;;
77026;SDS011;65956;52.986;17.490;2023-04-10T10:13:48;10.90;;;7.60;;
77026;SDS011;65956;52.986;17.490;2023-04-10T10:16:36;11.20;;;7.30;;
77026;SDS011;65956;52.986;17.490;2023-04-10T10:20:01;12.10;;;6.80;;
77026;SDS011;65956;52.986;17.490;2023-04-10T10:22:06;9.80;;;7.10;;
77026;SDS011;65956;52.986;17.490;2023-04-10T10:24:34;11.20;;;7.00;;
77026;SDS011;65956;52.986;17.490;2023-04-10T10:27:03;18.20;;;11.30;;
77026;SDS011;65956;52.986;17.490;2023-04-10T10:32:01;25.00;;;22.20;;
77026;SDS011;65956;52.986;17.490;2023-04-10T10:34:30;11.40;;;9.00;;
77026;SDS011;65956;52.986;17.490;2023-04-10T10:36:58;13.70;;;8.60;;
77026;SDS011;65956;52.986;17.490;2023-04-10T10:44:48;9.30;;;6.50;;
77026;SDS011;65956;52.986;17.490;2023-04-10T10:47:23;11.20;;;6.60;;
77026;SDS011;65956;52.986;17.490;2023-04-10T10:49:56;8.90;;;5.90;;
77026;SDS011;65956;52.986;17.490;2023-04-10T10:53:09;10.60;;;7.00;;
77026;SDS011;65956;52.986;17.490;2023-04-10T10:57:52;24.50;;;13.20;;
77026;SDS011;65956;52.986;17.490;2023-04-10T11:00:23;10.00;;;6.20;;
77026;SDS011;65956;52.986;17.490;2023-04-10T11:05:49;32.30;;;16.00;;
77026;SDS011;65956;52.986;17.490;2023-04-10T11:10:58;8.80;;;6.30;;
77026;SDS011;65956;52.986;17.490;2023-04-10T11:13:32;12.80;;;7.50;;
77026;SDS011;65956;52.986;17.490;2023-04-10T11:16:00;9.30;;;5.70;;
77026;SDS011;65956;52.986;17.490;2023-04-10T11:21:33;11.00;;;6.40;;
77026;SDS011;65956;52.986;17.490;2023-04-10T11:24:01;7.90;;;5.50;;
77026;SDS011;65956;52.986;17.490;2023-04-10T11:32:01;8.40;;;6.50;;
77026;SDS011;65956;52.986;17.490;2023-04-10T11:34:29;7.90;;;5.60;;
77026;SDS011;65956;52.986;17.490;2023-04-10T11:37:01;12.10;;;7.90;;
77026;SDS011;65956;52.986;17.490;2023-04-10T11:39:31;9.40;;;6.20;;
77026;SDS011;65956;52.986;17.490;2023-04-10T11:41:57;9.50;;;6.20;;
77026;SDS011;65956;52.986;17.490;2023-04-10T11:44:30;9.90;;;6.70;;
77026;SDS011;65956;52.986;17.490;2023-04-10T11:47:00;10.20;;;6.40;;
77026;SDS011;65956;52.986;17.490;2023-04-10T11:49:28;10.10;;;7.30;;
77026;SDS011;65956;52.986;17.490;2023-04-10T11:51:56;8.70;;;6.80;;
77026;SDS011;65956;52.986;17.490;2023-04-10T11:54:23;9.20;;;6.80;;
77026;SDS011;65956;52.986;17.490;2023-04-10T11:57:01;8.90;;;6.50;;
77026;SDS011;65956;52.986;17.490;2023-04-10T11:59:34;8.20;;;5.90;;
77026;SDS011;65956;52.986;17.490;2023-04-10T12:02:07;8.80;;;5.80;;
77026;SDS011;65956;52.986;17.490;2023-04-10T12:04:35;9.70;;;6.40;;
77026;SDS011;65956;52.986;17.490;2023-04-10T12:07:02;10.20;;;6.50;;
77026;SDS011;65956;52.986;17.490;2023-04-10T12:09:28;8.70;;;6.40;;
77026;SDS011;65956;52.986;17.490;2023-04-10T12:11:55;9.40;;;6.50;;
77026;SDS011;65956;52.986;17.490;2023-04-10T12:14:32;8.70;;;6.00;;
77026;SDS011;65956;52.986;17.490;2023-04-10T12:17:01;9.70;;;7.00;;
77026;SDS011;65956;52.986;17.490;2023-04-10T12:19:29;9.50;;;6.70;;
77026;SDS011;65956;52.986;17.490;2023-04-10T12:21:59;8.10;;;6.40;;
77026;SDS011;65956;52.986;17.490;2023-04-10T12:24:48;9.60;;;7.80;;
77026;SDS011;65956;52.986;17.490;2023-04-10T12:29:47;21.10;;;11.20;;
77026;SDS011;65956;52.986;17.490;2023-04-10T12:32:15;9.30;;;7.10;;
77026;SDS011;65956;52.986;17.490;2023-04-10T12:34:41;8.30;;;6.10;;
77026;SDS011;65956;52.986;17.490;2023-04-10T12:37:14;8.20;;;6.00;;
77026;SDS011;65956;52.986;17.490;2023-04-10T12:39:40;8.90;;;5.90;;
77026;SDS011;65956;52.986;17.490;2023-04-10T12:42:16;10.00;;;6.80;;
77026;SDS011;65956;52.986;17.490;2023-04-10T12:44:53;7.90;;;6.60;;
77026;SDS011;65956;52.986;17.490;2023-04-10T12:47:26;8.60;;;6.40;;
77026;SDS011;65956;52.986;17.490;2023-04-10T12:50:06;8.20;;;7.00;;
77026;SDS011;65956;52.986;17.490;2023-04-10T12:55:18;8.60;;;7.40;;
77026;SDS011;65956;52.986;17.490;2023-04-10T12:57:48;8.70;;;6.90;;
77026;SDS011;65956;52.986;17.490;2023-04-10T13:00:17;7.90;;;6.70;;
77026;SDS011;65956;52.986;17.490;2023-04-10T13:02:45;8.80;;;7.80;;
77026;SDS011;65956;52.986;17.490;2023-04-10T13:05:12;8.50;;;7.60;;
77026;SDS011;65956;52.986;17.490;2023-04-10T13:07:38;8.80;;;7.90;;
77026;SDS011;65956;52.986;17.490;2023-04-10T13:10:06;11.30;;;10.20;;
77026;SDS011;65956;52.986;17.490;2023-04-10T13:12:33;9.50;;;8.50;;
77026;SDS011;65956;52.986;17.490;2023-04-10T13:15:02;8.50;;;7.10;;
77026;SDS011;65956;52.986;17.490;2023-04-10T13:17:28;8.30;;;7.30;;
77026;SDS011;65956;52.986;17.490;2023-04-10T13:19:54;7.60;;;6.60;;
77026;SDS011;65956;52.986;17.490;2023-04-10T13:22:21;13.50;;;7.30;;
77026;SDS011;65956;52.986;17.490;2023-04-10T13:24:47;7.40;;;6.50;;
77026;SDS011;65956;52.986;17.490;2023-04-10T13:27:13;7.20;;;6.30;;
77026;SDS011;65956;52.986;17.490;2023-04-10T13:29:40;7.90;;;7.10;;
77026;SDS011;65956;52.986;17.490;2023-04-10T13:32:07;7.40;;;6.70;;
77026;SDS011;65956;52.986;17.490;2023-04-10T13:34:34;8.50;;;6.40;;
77026;SDS011;65956;52.986;17.490;2023-04-10T13:37:00;6.60;;;5.60;;
77026;SDS011;65956;52.986;17.490;2023-04-10T13:39:27;6.20;;;5.60;;
77026;SDS011;65956;52.986;17.490;2023-04-10T13:41:55;7.00;;;6.10;;
77026;SDS011;65956;52.986;17.490;2023-04-10T13:44:22;6.80;;;5.70;;
77026;SDS011;65956;52.986;17.490;2023-04-10T13:46:49;6.60;;;5.70;;
77026;SDS011;65956;52.986;17.490;2023-04-10T13:49:16;7.30;;;5.90;;
77026;SDS011;65956;52.986;17.490;2023-04-10T13:51:44;7.10;;;5.90;;
77026;SDS011;65956;52.986;17.490;2023-04-10T13:54:11;7.00;;;5.00;;
77026;SDS011;65956;52.986;17.490;2023-04-10T13:56:37;7.10;;;5.80;;
77026;SDS011;65956;52.986;17.490;2023-04-10T13:59:03;7.00;;;5.10;;
77026;SDS011;65956;52.986;17.490;2023-04-10T14:01:30;7.00;;;5.30;;
77026;SDS011;65956;52.986;17.490;2023-04-10T14:03:56;6.90;;;4.80;;
77026;SDS011;65956;52.986;17.490;2023-04-10T14:06:22;6.30;;;5.50;;
77026;SDS011;65956;52.986;17.490;2023-04-10T14:08:48;7.40;;;6.00;;
77026;SDS011;65956;52.986;17.490;2023-04-10T21:04:18;33.60;;;18.70;;
77026;SDS011;65956;52.986;17.490;2023-04-10T21:06:44;38.60;;;19.80;;
77026;SDS011;65956;52.986;17.490;2023-04-10T21:09:10;35.20;;;19.40;;
77026;SDS011;65956;52.986;17.490;2023-04-10T21:11:36;38.50;;;20.50;;
77026;SDS011;65956;52.986;17.490;2023-04-10T21:14:02;45.40;;;23.60;;
77026;SDS011;65956;52.986;17.490;2023-04-10T21:16:29;44.80;;;22.70;;
77026;SDS011;65956;52.986;17.490;2023-04-10T21:18:56;43.30;;;24.10;;
77026;SDS011;65956;52.986;17.490;2023-04-10T21:21:22;43.70;;;24.00;;
77026;SDS011;65956;52.986;17.490;2023-04-10T21:23:48;44.70;;;23.70;;
77026;SDS011;65956;52.986;17.490;2023-04-10T21:26:14;45.10;;;24.40;;
77026;SDS011;65956;52.986;17.490;2023-04-10T21:28:40;40.40;;;21.30;;
77026;SDS011;65956;52.986;17.490;2023-04-10T21:31:06;44.70;;;22.40;;
77026;SDS011;65956;52.986;17.490;2023-04-10T21:33:32;38.80;;;18.80;;
77026;SDS011;65956;52.986;17.490;2023-04-10T21:35:58;40.10;;;20.90;;
77026;SDS011;65956;52.986;17.490;2023-04-10T21:38:24;38.80;;;20.40;;
77026;SDS011;65956;52.986;17.490;2023-04-10T21:40:54;41.30;;;22.70;;
77026;SDS011;65956;52.986;17.490;2023-04-10T21:43:20;39.50;;;22.50;;
77026;SDS011;65956;52.986;17.490;2023-04-10T21:45:46;40.30;;;22.40;;
77026;SDS011;65956;52.986;17.490;2023-04-10T21:48:12;36.10;;;21.00;;
77026;SDS011;65956;52.986;17.490;2023-04-10T21:50:39;36.40;;;20.90;;
77026;SDS011;65956;52.986;17.490;2023-04-10T21:53:05;33.20;;;19.80;;
77026;SDS011;65956;52.986;17.490;2023-04-10T21:55:31;34.80;;;20.00;;
77026;SDS011;65956;52.986;17.490;2023-04-10T21:57:57;40.10;;;22.60;;
77026;SDS011;65956;52.986;17.490;2023-04-10T22:00:23;39.90;;;22.90;;
77026;SDS011;65956;52.986;17.490;2023-04-10T22:02:50;35.40;;;21.90;;
77026;SDS011;65956;52.986;17.490;2023-04-10T22:05:16;37.50;;;20.10;;
77026;SDS011;65956;52.986;17.490;2023-04-10T22:07:42;37.30;;;20.90;;
77026;SDS011;65956;52.986;17.490;2023-04-10T22:10:08;34.20;;;20.80;;
77026;SDS011;65956;52.986;17.490;2023-04-10T22:12:34;36.00;;;20.80;;
77026;SDS011;65956;52.986;17.490;2023-04-10T22:15:00;34.40;;;20.20;;
77026;SDS011;65956;52.986;17.490;2023-04-10T22:17:26;36.50;;;20.50;;
77026;SDS011;65956;52.986;17.490;2023-04-10T22:19:52;35.10;;;20.90;;
77026;SDS011;65956;52.986;17.490;2023-04-10T22:22:18;34.30;;;20.30;;
77026;SDS011;65956;52.986;17.490;2023-04-10T22:24:45;31.80;;;19.30;;
77026;SDS011;65956;52.986;17.490;2023-04-10T22:27:10;32.30;;;18.90;;
77026;SDS011;65956;52.986;17.490;2023-04-10T22:29:36;32.50;;;19.50;;
77026;SDS011;65956;52.986;17.490;2023-04-10T22:32:02;34.00;;;18.40;;